sensor_id;sensor_type;location;lat;lon;timestamp;temperature;humidity
20091;DHT22;10205;49.678;6.560;2023-12-04T00:01:21;4.00;73.00
20091;DHT22;10205;49.678;6.560;2023-12-04T00:03:48;4.00;73.80
20091;DHT22;10205;49.678;6.560;2023-12-04T00:06:15;4.00;73.00
20091;DHT22;10205;49.678;6.560;2023-12-04T00:08:43;4.00;73.00
20091;DHT22;10205;49.678;6.560;2023-12-04T00:11:10;4.00;73.10
20091;DHT22;10205;49.678;6.560;2023-12-04T00:13:37;4.00;73.00
20091;DHT22;10205;49.678;6.560;2023-12-04T00:16:07;4.00;73.00
20091;DHT22;10205;49.678;6.560;2023-12-04T00:18:35;4.00;73.10
20091;DHT22;10205;49.678;6.560;2023-12-04T00:21:02;4.00;73.00
20091;DHT22;10205;49.678;6.560;2023-12-04T00:23:29;4.00;73.00
20091;DHT22;10205;49.678;6.560;2023-12-04T00:25:56;3.90;72.90
20091;DHT22;10205;49.678;6.560;2023-12-04T00:28:24;3.90;72.90
20091;DHT22;10205;49.678;6.560;2023-12-04T00:30:51;4.00;73.80
20091;DHT22;10205;49.678;6.560;2023-12-04T00:33:19;3.90;73.70
20091;DHT22;10205;49.678;6.560;2023-12-04T00:35:46;3.90;72.80
20091;DHT22;10205;49.678;6.560;2023-12-04T00:38:13;3.90;72.90
20091;DHT22;10205;49.678;6.560;2023-12-04T00:40:40;3.90;72.90
20091;DHT22;10205;49.678;6.560;2023-12-04T00:43:08;3.90;72.90
20091;DHT22;10205;49.678;6.560;2023-12-04T00:45:35;3.90;72.90
20091;DHT22;10205;49.678;6.560;2023-12-04T00:48:02;3.90;73.00
20091;DHT22;10205;49.678;6.560;2023-12-04T00:50:31;3.90;73.00
20091;DHT22;10205;49.678;6.560;2023-12-04T00:52:59;3.80;72.90
20091;DHT22;10205;49.678;6.560;2023-12-04T00:55:26;3.80;72.90
20091;DHT22;10205;49.678;6.560;2023-12-04T00:57:53;3.80;72.90
20091;DHT22;10205;49.678;6.560;2023-12-04T01:00:21;3.80;73.00
20091;DHT22;10205;49.678;6.560;2023-12-04T01:02:48;3.80;73.00
20091;DHT22;10205;49.678;6.560;2023-12-04T01:05:15;3.80;73.00
20091;DHT22;10205;49.678;6.560;2023-12-04T01:07:44;3.80;73.00
20091;DHT22;10205;49.678;6.560;2023-12-04T01:10:11;3.70;73.00
20091;DHT22;10205;49.678;6.560;2023-12-04T01:12:38;3.70;72.90
20091;DHT22;10205;49.678;6.560;2023-12-04T01:15:07;3.70;72.90
20091;DHT22;10205;49.678;6.560;2023-12-04T01:17:34;3.70;73.00
20091;DHT22;10205;49.678;6.560;2023-12-04T01:20:03;3.70;73.00
20091;DHT22;10205;49.678;6.560;2023-12-04T01:22:31;3.70;73.00
20091;DHT22;10205;49.678;6.560;2023-12-04T01:24:59;3.70;73.00
20091;DHT22;10205;49.678;6.560;2023-12-04T01:27:28;3.60;73.00
20091;DHT22;10205;49.678;6.560;2023-12-04T01:29:55;3.60;73.00
20091;DHT22;10205;49.678;6.560;2023-12-04T01:32:22;3.60;73.00
20091;DHT22;10205;49.678;6.560;2023-12-04T01:34:49;3.60;73.00
20091;DHT22;10205;49.678;6.560;2023-12-04T01:37:16;3.60;73.00
20091;DHT22;10205;49.678;6.560;2023-12-04T01:39:43;3.60;73.00
20091;DHT22;10205;49.678;6.560;2023-12-04T01:42:12;3.60;73.00
20091;DHT22;10205;49.678;6.560;2023-12-04T01:44:39;3.50;73.00
20091;DHT22;10205;49.678;6.560;2023-12-04T01:47:06;3.60;73.00
20091;DHT22;10205;49.678;6.560;2023-12-04T01:49:34;3.50;73.00
20091;DHT22;10205;49.678;6.560;2023-12-04T01:52:02;3.50;73.00
20091;DHT22;10205;49.678;6.560;2023-12-04T01:54:30;3.50;73.00
20091;DHT22;10205;49.678;6.560;2023-12-04T01:56:59;3.50;73.10
20091;DHT22;10205;49.678;6.560;2023-12-04T01:59:27;3.50;73.10
20091;DHT22;10205;49.678;6.560;2023-12-04T02:01:54;3.40;73.00
20091;DHT22;10205;49.678;6.560;2023-12-04T02:04:22;3.50;73.10
20091;DHT22;10205;49.678;6.560;2023-12-04T02:06:49;3.40;73.00
20091;DHT22;10205;49.678;6.560;2023-12-04T02:09:16;3.40;73.10
20091;DHT22;10205;49.678;6.560;2023-12-04T02:11:44;3.40;73.10
20091;DHT22;10205;49.678;6.560;2023-12-04T02:14:11;3.40;73.20
20091;DHT22;10205;49.678;6.560;2023-12-04T02:16:41;3.40;73.20
20091;DHT22;10205;49.678;6.560;2023-12-04T02:19:11;3.40;73.10
20091;DHT22;10205;49.678;6.560;2023-12-04T02:21:39;3.30;73.00
20091;DHT22;10205;49.678;6.560;2023-12-04T02:24:09;3.40;73.10
20091;DHT22;10205;49.678;6.560;2023-12-04T02:26:42;3.30;73.10
20091;DHT22;10205;49.678;6.560;2023-12-04T02:29:17;3.30;73.20
20091;DHT22;10205;49.678;6.560;2023-12-04T02:31:51;3.30;73.20
20091;DHT22;10205;49.678;6.560;2023-12-04T02:34:21;3.30;73.20
20091;DHT22;10205;49.678;6.560;2023-12-04T02:36:50;3.30;73.20
20091;DHT22;10205;49.678;6.560;2023-12-04T02:39:21;3.30;74.10
20091;DHT22;10205;49.678;6.560;2023-12-04T02:41:48;3.30;73.20
20091;DHT22;10205;49.678;6.560;2023-12-04T02:44:15;3.20;73.10
20091;DHT22;10205;49.678;6.560;2023-12-04T02:46:43;3.20;73.10
20091;DHT22;10205;49.678;6.560;2023-12-04T02:49:10;3.20;73.20
20091;DHT22;10205;49.678;6.560;2023-12-04T02:51:40;3.20;73.30
20091;DHT22;10205;49.678;6.560;2023-12-04T02:54:08;3.20;73.40
20091;DHT22;10205;49.678;6.560;2023-12-04T02:56:36;3.20;73.40
20091;DHT22;10205;49.678;6.560;2023-12-04T02:59:03;3.20;73.40
20091;DHT22;10205;49.678;6.560;2023-12-04T03:01:30;3.20;73.40
20091;DHT22;10205;49.678;6.560;2023-12-04T03:03:57;3.20;73.40
20091;DHT22;10205;49.678;6.560;2023-12-04T03:06:24;3.20;73.30
20091;DHT22;10205;49.678;6.560;2023-12-04T03:08:52;3.20;73.40
20091;DHT22;10205;49.678;6.560;2023-12-04T03:11:19;3.20;73.40
20091;DHT22;10205;49.678;6.560;2023-12-04T03:13:48;3.20;73.40
20091;DHT22;10205;49.678;6.560;2023-12-04T03:16:15;3.10;73.40
20091;DHT22;10205;49.678;6.560;2023-12-04T03:18:43;3.10;73.40
20091;DHT22;10205;49.678;6.560;2023-12-04T03:21:10;3.10;73.40
20091;DHT22;10205;49.678;6.560;2023-12-04T03:23:37;3.10;73.40
20091;DHT22;10205;49.678;6.560;2023-12-04T03:26:06;3.20;73.50
20091;DHT22;10205;49.678;6.560;2023-12-04T03:28:33;3.10;73.40
20091;DHT22;10205;49.678;6.560;2023-12-04T03:31:02;3.10;73.40
20091;DHT22;10205;49.678;6.560;2023-12-04T03:33:29;3.10;73.40
20091;DHT22;10205;49.678;6.560;2023-12-04T03:35:56;3.10;73.50
20091;DHT22;10205;49.678;6.560;2023-12-04T03:38:26;3.10;73.50
20091;DHT22;10205;49.678;6.560;2023-12-04T03:40:54;3.10;73.50
20091;DHT22;10205;49.678;6.560;2023-12-04T03:43:21;3.10;73.50
20091;DHT22;10205;49.678;6.560;2023-12-04T03:45:48;3.10;73.50
20091;DHT22;10205;49.678;6.560;2023-12-04T03:48:17;3.10;73.40
20091;DHT22;10205;49.678;6.560;2023-12-04T03:50:44;3.10;73.50
20091;DHT22;10205;49.678;6.560;2023-12-04T03:53:11;3.10;73.50
20091;DHT22;10205;49.678;6.560;2023-12-04T03:55:38;3.10;73.50
20091;DHT22;10205;49.678;6.560;2023-12-04T03:58:06;3.10;73.50
20091;DHT22;10205;49.678;6.560;2023-12-04T04:00:33;3.00;73.50
20091;DHT22;10205;49.678;6.560;2023-12-04T04:03:01;3.00;73.60
20091;DHT22;10205;49.678;6.560;2023-12-04T04:05:29;3.10;73.70
20091;DHT22;10205;49.678;6.560;2023-12-04T04:07:59;3.00;73.60
20091;DHT22;10205;49.678;6.560;2023-12-04T04:10:26;3.00;73.60
20091;DHT22;10205;49.678;6.560;2023-12-04T04:12:53;3.00;73.60
20091;DHT22;10205;49.678;6.560;2023-12-04T04:15:21;3.00;73.70
20091;DHT22;10205;49.678;6.560;2023-12-04T04:17:48;3.00;73.80
20091;DHT22;10205;49.678;6.560;2023-12-04T04:20:15;3.00;73.70
20091;DHT22;10205;49.678;6.560;2023-12-04T04:22:44;3.00;73.80
20091;DHT22;10205;49.678;6.560;2023-12-04T04:25:12;3.00;74.60
20091;DHT22;10205;49.678;6.560;2023-12-04T04:27:39;3.00;73.70
20091;DHT22;10205;49.678;6.560;2023-12-04T04:30:07;3.00;73.80
20091;DHT22;10205;49.678;6.560;2023-12-04T04:32:34;3.00;73.70
20091;DHT22;10205;49.678;6.560;2023-12-04T04:35:02;3.00;73.70
20091;DHT22;10205;49.678;6.560;2023-12-04T04:37:29;3.00;73.70
20091;DHT22;10205;49.678;6.560;2023-12-04T04:39:57;3.00;73.70
20091;DHT22;10205;49.678;6.560;2023-12-04T04:42:25;3.00;74.60
20091;DHT22;10205;49.678;6.560;2023-12-04T04:44:52;3.00;73.80
20091;DHT22;10205;49.678;6.560;2023-12-04T04:47:19;3.00;73.80
20091;DHT22;10205;49.678;6.560;2023-12-04T04:49:46;3.00;73.90
20091;DHT22;10205;49.678;6.560;2023-12-04T04:52:13;3.00;74.00
20091;DHT22;10205;49.678;6.560;2023-12-04T04:54:40;3.00;73.90
20091;DHT22;10205;49.678;6.560;2023-12-04T04:57:09;3.00;73.90
20091;DHT22;10205;49.678;6.560;2023-12-04T04:59:36;2.90;73.90
20091;DHT22;10205;49.678;6.560;2023-12-04T05:02:03;2.90;73.90
20091;DHT22;10205;49.678;6.560;2023-12-04T05:04:30;3.00;74.00
20091;DHT22;10205;49.678;6.560;2023-12-04T05:06:57;3.00;74.00
20091;DHT22;10205;49.678;6.560;2023-12-04T05:09:24;2.90;74.00
20091;DHT22;10205;49.678;6.560;2023-12-04T05:11:51;3.00;74.00
20091;DHT22;10205;49.678;6.560;2023-12-04T05:14:20;3.00;74.00
20091;DHT22;10205;49.678;6.560;2023-12-04T05:16:47;3.00;74.00
20091;DHT22;10205;49.678;6.560;2023-12-04T05:19:14;3.00;74.10
20091;DHT22;10205;49.678;6.560;2023-12-04T05:21:41;3.00;74.00
20091;DHT22;10205;49.678;6.560;2023-12-04T05:24:08;3.00;74.00
20091;DHT22;10205;49.678;6.560;2023-12-04T05:26:36;3.00;74.00
20091;DHT22;10205;49.678;6.560;2023-12-04T05:29:03;3.00;74.00
20091;DHT22;10205;49.678;6.560;2023-12-04T05:31:31;3.00;74.00
20091;DHT22;10205;49.678;6.560;2023-12-04T05:33:58;3.00;74.00
20091;DHT22;10205;49.678;6.560;2023-12-04T05:36:26;3.00;74.00
20091;DHT22;10205;49.678;6.560;2023-12-04T05:38:54;3.00;74.00
20091;DHT22;10205;49.678;6.560;2023-12-04T05:41:21;3.00;73.90
20091;DHT22;10205;49.678;6.560;2023-12-04T05:43:48;3.00;73.90
20091;DHT22;10205;49.678;6.560;2023-12-04T05:46:15;3.00;73.90
20091;DHT22;10205;49.678;6.560;2023-12-04T05:48:43;3.00;73.90
20091;DHT22;10205;49.678;6.560;2023-12-04T05:51:10;3.00;73.90
20091;DHT22;10205;49.678;6.560;2023-12-04T05:53:38;3.00;73.90
20091;DHT22;10205;49.678;6.560;2023-12-04T05:56:06;3.00;74.00
20091;DHT22;10205;49.678;6.560;2023-12-04T05:58:34;3.00;74.00
20091;DHT22;10205;49.678;6.560;2023-12-04T06:01:02;3.00;74.00
20091;DHT22;10205;49.678;6.560;2023-12-04T06:03:29;3.00;73.90
20091;DHT22;10205;49.678;6.560;2023-12-04T06:05:58;3.00;73.90
20091;DHT22;10205;49.678;6.560;2023-12-04T06:08:25;3.00;74.00
20091;DHT22;10205;49.678;6.560;2023-12-04T06:10:52;3.00;74.80
20091;DHT22;10205;49.678;6.560;2023-12-04T06:13:19;3.00;74.00
20091;DHT22;10205;49.678;6.560;2023-12-04T06:15:46;3.00;73.90
20091;DHT22;10205;49.678;6.560;2023-12-04T06:18:13;3.00;73.90
20091;DHT22;10205;49.678;6.560;2023-12-04T06:20:40;3.10;74.00
20091;DHT22;10205;49.678;6.560;2023-12-04T06:23:10;3.00;73.90
20091;DHT22;10205;49.678;6.560;2023-12-04T06:25:38;3.00;73.90
20091;DHT22;10205;49.678;6.560;2023-12-04T06:28:06;3.00;73.90
20091;DHT22;10205;49.678;6.560;2023-12-04T06:30:34;3.00;73.90
20091;DHT22;10205;49.678;6.560;2023-12-04T06:33:03;3.00;74.00
20091;DHT22;10205;49.678;6.560;2023-12-04T06:35:30;3.00;74.00
20091;DHT22;10205;49.678;6.560;2023-12-04T06:38:03;3.00;73.90
20091;DHT22;10205;49.678;6.560;2023-12-04T06:40:34;3.00;73.90
20091;DHT22;10205;49.678;6.560;2023-12-04T06:43:03;3.10;74.00
20091;DHT22;10205;49.678;6.560;2023-12-04T06:45:31;3.00;73.90
20091;DHT22;10205;49.678;6.560;2023-12-04T06:47:59;3.00;73.90
20091;DHT22;10205;49.678;6.560;2023-12-04T06:50:27;3.10;74.00
20091;DHT22;10205;49.678;6.560;2023-12-04T06:52:54;3.00;73.90
20091;DHT22;10205;49.678;6.560;2023-12-04T06:55:22;3.10;74.00
20091;DHT22;10205;49.678;6.560;2023-12-04T06:57:51;3.00;74.00
20091;DHT22;10205;49.678;6.560;2023-12-04T07:00:19;3.00;74.00
20091;DHT22;10205;49.678;6.560;2023-12-04T07:02:46;3.00;74.00
20091;DHT22;10205;49.678;6.560;2023-12-04T07:05:13;3.10;74.10
20091;DHT22;10205;49.678;6.560;2023-12-04T07:07:41;3.10;74.20
20091;DHT22;10205;49.678;6.560;2023-12-04T07:10:08;3.10;74.10
20091;DHT22;10205;49.678;6.560;2023-12-04T07:12:40;3.00;74.00
20091;DHT22;10205;49.678;6.560;2023-12-04T07:15:09;3.00;74.10
20091;DHT22;10205;49.678;6.560;2023-12-04T07:17:37;3.00;74.10
20091;DHT22;10205;49.678;6.560;2023-12-04T07:20:05;3.10;74.20
20091;DHT22;10205;49.678;6.560;2023-12-04T07:22:33;3.10;74.10
20091;DHT22;10205;49.678;6.560;2023-12-04T07:25:00;3.10;74.10
20091;DHT22;10205;49.678;6.560;2023-12-04T07:27:29;3.10;74.10
20091;DHT22;10205;49.678;6.560;2023-12-04T07:29:56;3.10;74.10
20091;DHT22;10205;49.678;6.560;2023-12-04T07:32:25;3.10;74.00
20091;DHT22;10205;49.678;6.560;2023-12-04T07:34:52;3.10;73.90
20091;DHT22;10205;49.678;6.560;2023-12-04T07:37:19;3.10;74.80
20091;DHT22;10205;49.678;6.560;2023-12-04T07:39:46;3.10;74.80
20091;DHT22;10205;49.678;6.560;2023-12-04T07:42:13;3.10;74.00
20091;DHT22;10205;49.678;6.560;2023-12-04T07:44:41;3.10;74.00
20091;DHT22;10205;49.678;6.560;2023-12-04T07:47:08;3.10;73.90
20091;DHT22;10205;49.678;6.560;2023-12-04T07:49:36;3.10;73.80
20091;DHT22;10205;49.678;6.560;2023-12-04T07:52:04;3.10;73.80
20091;DHT22;10205;49.678;6.560;2023-12-04T07:54:31;3.10;73.80
20091;DHT22;10205;49.678;6.560;2023-12-04T07:56:58;3.10;73.80
20091;DHT22;10205;49.678;6.560;2023-12-04T07:59:25;3.10;73.90
20091;DHT22;10205;49.678;6.560;2023-12-04T08:01:52;3.10;74.00
20091;DHT22;10205;49.678;6.560;2023-12-04T08:04:20;3.10;74.00
20091;DHT22;10205;49.678;6.560;2023-12-04T08:06:48;3.10;74.10
20091;DHT22;10205;49.678;6.560;2023-12-04T08:09:15;3.10;74.20
20091;DHT22;10205;49.678;6.560;2023-12-04T08:11:42;3.10;74.20
20091;DHT22;10205;49.678;6.560;2023-12-04T08:14:09;3.10;74.20
20091;DHT22;10205;49.678;6.560;2023-12-04T08:16:37;3.10;74.20
20091;DHT22;10205;49.678;6.560;2023-12-04T08:19:04;3.10;74.20
20091;DHT22;10205;49.678;6.560;2023-12-04T08:21:32;3.10;74.20
20091;DHT22;10205;49.678;6.560;2023-12-04T08:24:00;3.10;74.20
20091;DHT22;10205;49.678;6.560;2023-12-04T08:26:27;3.10;74.30
20091;DHT22;10205;49.678;6.560;2023-12-04T08:28:54;3.20;74.30
20091;DHT22;10205;49.678;6.560;2023-12-04T08:31:22;3.20;74.30
20091;DHT22;10205;49.678;6.560;2023-12-04T08:33:49;3.20;74.20
20091;DHT22;10205;49.678;6.560;2023-12-04T08:36:16;3.20;74.20
20091;DHT22;10205;49.678;6.560;2023-12-04T08:38:43;3.20;74.10
20091;DHT22;10205;49.678;6.560;2023-12-04T08:41:12;3.20;74.10
20091;DHT22;10205;49.678;6.560;2023-12-04T08:43:39;3.20;74.10
20091;DHT22;10205;49.678;6.560;2023-12-04T08:46:06;3.20;74.00
20091;DHT22;10205;49.678;6.560;2023-12-04T08:48:34;3.20;74.00
20091;DHT22;10205;49.678;6.560;2023-12-04T08:51:01;3.20;74.10
20091;DHT22;10205;49.678;6.560;2023-12-04T08:53:28;3.20;74.20
20091;DHT22;10205;49.678;6.560;2023-12-04T08:55:55;3.30;74.20
20091;DHT22;10205;49.678;6.560;2023-12-04T08:58:24;3.30;74.20
20091;DHT22;10205;49.678;6.560;2023-12-04T09:00:51;3.30;74.20
20091;DHT22;10205;49.678;6.560;2023-12-04T09:03:18;3.30;74.20
20091;DHT22;10205;49.678;6.560;2023-12-04T09:05:46;3.30;74.20
20091;DHT22;10205;49.678;6.560;2023-12-04T09:08:15;3.30;74.20
20091;DHT22;10205;49.678;6.560;2023-12-04T09:10:42;3.30;74.10
20091;DHT22;10205;49.678;6.560;2023-12-04T09:13:13;3.30;74.10
20091;DHT22;10205;49.678;6.560;2023-12-04T09:15:42;3.40;74.10
20091;DHT22;10205;49.678;6.560;2023-12-04T09:18:09;3.40;74.10
20091;DHT22;10205;49.678;6.560;2023-12-04T09:20:36;3.40;74.20
20091;DHT22;10205;49.678;6.560;2023-12-04T09:23:03;3.40;74.20
20091;DHT22;10205;49.678;6.560;2023-12-04T09:25:30;3.40;74.20
20091;DHT22;10205;49.678;6.560;2023-12-04T09:27:57;3.40;74.30
20091;DHT22;10205;49.678;6.560;2023-12-04T09:30:26;3.40;74.40
20091;DHT22;10205;49.678;6.560;2023-12-04T09:32:54;3.40;74.40
20091;DHT22;10205;49.678;6.560;2023-12-04T09:35:21;3.40;74.40
20091;DHT22;10205;49.678;6.560;2023-12-04T09:37:49;3.50;74.50
20091;DHT22;10205;49.678;6.560;2023-12-04T09:40:16;3.50;74.60
20091;DHT22;10205;49.678;6.560;2023-12-04T09:42:43;3.50;74.60
20091;DHT22;10205;49.678;6.560;2023-12-04T09:45:12;3.50;74.70
20091;DHT22;10205;49.678;6.560;2023-12-04T09:47:41;3.50;74.70
20091;DHT22;10205;49.678;6.560;2023-12-04T09:50:10;3.50;74.80
20091;DHT22;10205;49.678;6.560;2023-12-04T09:52:37;3.50;74.80
20091;DHT22;10205;49.678;6.560;2023-12-04T09:55:05;3.50;74.80
20091;DHT22;10205;49.678;6.560;2023-12-04T09:57:33;3.50;74.80
20091;DHT22;10205;49.678;6.560;2023-12-04T10:00:02;3.50;74.90
20091;DHT22;10205;49.678;6.560;2023-12-04T10:02:32;3.50;75.00
20091;DHT22;10205;49.678;6.560;2023-12-04T10:05:00;3.50;74.90
20091;DHT22;10205;49.678;6.560;2023-12-04T10:07:32;3.60;75.00
20091;DHT22;10205;49.678;6.560;2023-12-04T10:09:59;3.60;75.10
20091;DHT22;10205;49.678;6.560;2023-12-04T10:12:26;3.60;75.10
20091;DHT22;10205;49.678;6.560;2023-12-04T10:15:03;3.60;75.10
20091;DHT22;10205;49.678;6.560;2023-12-04T10:17:36;3.60;75.20
20091;DHT22;10205;49.678;6.560;2023-12-04T10:20:05;3.60;75.20
20091;DHT22;10205;49.678;6.560;2023-12-04T10:22:39;3.60;75.20
20091;DHT22;10205;49.678;6.560;2023-12-04T10:25:14;3.60;75.10
20091;DHT22;10205;49.678;6.560;2023-12-04T10:27:42;3.60;75.20
20091;DHT22;10205;49.678;6.560;2023-12-04T10:30:20;3.70;75.20
20091;DHT22;10205;49.678;6.560;2023-12-04T10:32:49;3.70;75.20
20091;DHT22;10205;49.678;6.560;2023-12-04T10:35:20;3.70;76.00
20091;DHT22;10205;49.678;6.560;2023-12-04T10:37:53;3.70;75.30
20091;DHT22;10205;49.678;6.560;2023-12-04T10:40:25;3.70;75.30
20091;DHT22;10205;49.678;6.560;2023-12-04T10:43:10;3.70;75.30
20091;DHT22;10205;49.678;6.560;2023-12-04T10:45:40;3.70;75.50
20091;DHT22;10205;49.678;6.560;2023-12-04T10:48:09;3.80;75.40
20091;DHT22;10205;49.678;6.560;2023-12-04T10:50:38;3.80;75.40
20091;DHT22;10205;49.678;6.560;2023-12-04T10:53:10;3.80;75.30
20091;DHT22;10205;49.678;6.560;2023-12-04T10:55:38;3.80;75.30
20091;DHT22;10205;49.678;6.560;2023-12-04T10:58:07;3.80;75.30
20091;DHT22;10205;49.678;6.560;2023-12-04T11:00:38;3.80;75.40
20091;DHT22;10205;49.678;6.560;2023-12-04T11:03:09;3.80;75.40
20091;DHT22;10205;49.678;6.560;2023-12-04T11:05:38;3.80;75.40
20091;DHT22;10205;49.678;6.560;2023-12-04T11:08:09;3.90;75.90
20091;DHT22;10205;49.678;6.560;2023-12-04T11:10:44;3.90;75.50
20091;DHT22;10205;49.678;6.560;2023-12-04T11:13:16;3.90;75.50
20091;DHT22;10205;49.678;6.560;2023-12-04T11:15:48;3.90;75.50
20091;DHT22;10205;49.678;6.560;2023-12-04T11:18:22;3.90;75.60
20091;DHT22;10205;49.678;6.560;2023-12-04T11:20:55;3.90;75.50
20091;DHT22;10205;49.678;6.560;2023-12-04T11:23:32;4.00;75.60
20091;DHT22;10205;49.678;6.560;2023-12-04T11:26:01;4.00;75.50
20091;DHT22;10205;49.678;6.560;2023-12-04T11:28:31;4.00;75.60
20091;DHT22;10205;49.678;6.560;2023-12-04T11:30:59;4.00;75.70
20091;DHT22;10205;49.678;6.560;2023-12-04T11:33:27;4.00;75.70
20091;DHT22;10205;49.678;6.560;2023-12-04T11:36:06;4.00;75.70
20091;DHT22;10205;49.678;6.560;2023-12-04T11:38:37;4.00;75.70
20091;DHT22;10205;49.678;6.560;2023-12-04T11:41:15;4.10;75.70
20091;DHT22;10205;49.678;6.560;2023-12-04T11:43:44;4.10;75.90
20091;DHT22;10205;49.678;6.560;2023-12-04T11:46:13;4.10;75.80
20091;DHT22;10205;49.678;6.560;2023-12-04T11:48:47;4.10;75.80
20091;DHT22;10205;49.678;6.560;2023-12-04T11:51:47;4.10;75.80
20091;DHT22;10205;49.678;6.560;2023-12-04T11:54:19;4.10;75.90
20091;DHT22;10205;49.678;6.560;2023-12-04T11:57:01;4.20;75.70
20091;DHT22;10205;49.678;6.560;2023-12-04T11:59:47;4.20;75.80
20091;DHT22;10205;49.678;6.560;2023-12-04T12:02:24;4.20;75.70
20091;DHT22;10205;49.678;6.560;2023-12-04T12:04:55;4.20;75.80
20091;DHT22;10205;49.678;6.560;2023-12-04T12:07:23;4.20;75.80
20091;DHT22;10205;49.678;6.560;2023-12-04T12:09:52;4.30;75.10
20091;DHT22;10205;49.678;6.560;2023-12-04T12:12:19;4.30;75.80
20091;DHT22;10205;49.678;6.560;2023-12-04T12:14:46;4.30;75.80
20091;DHT22;10205;49.678;6.560;2023-12-04T12:17:13;4.30;75.90
20091;DHT22;10205;49.678;6.560;2023-12-04T12:19:41;4.30;75.90
20091;DHT22;10205;49.678;6.560;2023-12-04T12:22:08;4.30;75.90
20091;DHT22;10205;49.678;6.560;2023-12-04T12:24:35;4.30;75.80
20091;DHT22;10205;49.678;6.560;2023-12-04T12:27:04;4.40;75.80
20091;DHT22;10205;49.678;6.560;2023-12-04T12:29:31;4.40;75.80
20091;DHT22;10205;49.678;6.560;2023-12-04T12:31:58;4.40;75.90
20091;DHT22;10205;49.678;6.560;2023-12-04T12:34:25;4.40;75.90
20091;DHT22;10205;49.678;6.560;2023-12-04T12:36:53;4.40;75.90
20091;DHT22;10205;49.678;6.560;2023-12-04T12:39:21;4.40;75.90
20091;DHT22;10205;49.678;6.560;2023-12-04T12:41:49;4.50;76.00
20091;DHT22;10205;49.678;6.560;2023-12-04T12:44:18;4.50;75.90
20091;DHT22;10205;49.678;6.560;2023-12-04T12:46:47;4.50;75.90
20091;DHT22;10205;49.678;6.560;2023-12-04T12:49:17;4.50;76.70
20091;DHT22;10205;49.678;6.560;2023-12-04T12:51:45;4.50;75.90
20091;DHT22;10205;49.678;6.560;2023-12-04T12:54:13;4.60;76.00
20091;DHT22;10205;49.678;6.560;2023-12-04T12:56:40;4.60;76.00
20091;DHT22;10205;49.678;6.560;2023-12-04T12:59:07;4.60;76.00
20091;DHT22;10205;49.678;6.560;2023-12-04T13:01:37;4.60;75.90
20091;DHT22;10205;49.678;6.560;2023-12-04T13:04:04;4.60;76.00
20091;DHT22;10205;49.678;6.560;2023-12-04T13:06:31;4.60;76.00
20091;DHT22;10205;49.678;6.560;2023-12-04T13:08:59;4.60;76.00
20091;DHT22;10205;49.678;6.560;2023-12-04T13:11:26;4.70;76.10
20091;DHT22;10205;49.678;6.560;2023-12-04T13:13:54;4.70;76.10
20091;DHT22;10205;49.678;6.560;2023-12-04T13:16:23;4.70;76.10
20091;DHT22;10205;49.678;6.560;2023-12-04T13:18:52;4.70;76.10
20091;DHT22;10205;49.678;6.560;2023-12-04T13:21:19;4.70;76.10
20091;DHT22;10205;49.678;6.560;2023-12-04T13:23:45;4.70;76.00
20091;DHT22;10205;49.678;6.560;2023-12-04T13:26:12;4.70;76.00
20091;DHT22;10205;49.678;6.560;2023-12-04T13:28:41;4.80;76.00
20091;DHT22;10205;49.678;6.560;2023-12-04T13:31:08;4.80;76.80
20091;DHT22;10205;49.678;6.560;2023-12-04T13:33:35;4.80;76.00
20091;DHT22;10205;49.678;6.560;2023-12-04T13:36:05;4.80;75.90
20091;DHT22;10205;49.678;6.560;2023-12-04T13:38:33;4.80;75.90
20091;DHT22;10205;49.678;6.560;2023-12-04T13:41:01;4.90;75.90
20091;DHT22;10205;49.678;6.560;2023-12-04T13:43:54;4.90;75.80
20091;DHT22;10205;49.678;6.560;2023-12-04T13:46:22;4.90;75.70
20091;DHT22;10205;49.678;6.560;2023-12-04T13:48:49;4.90;75.60
20091;DHT22;10205;49.678;6.560;2023-12-04T13:51:18;4.90;75.60
20091;DHT22;10205;49.678;6.560;2023-12-04T13:53:45;5.00;75.70
20091;DHT22;10205;49.678;6.560;2023-12-04T13:56:16;5.00;75.70
20091;DHT22;10205;49.678;6.560;2023-12-04T13:59:01;5.00;75.70
20091;DHT22;10205;49.678;6.560;2023-12-04T14:01:30;5.00;75.70
20091;DHT22;10205;49.678;6.560;2023-12-04T14:03:57;5.00;75.70
20091;DHT22;10205;49.678;6.560;2023-12-04T14:06:28;5.10;75.80
20091;DHT22;10205;49.678;6.560;2023-12-04T14:08:56;5.10;75.80
20091;DHT22;10205;49.678;6.560;2023-12-04T14:11:24;5.10;75.70
20091;DHT22;10205;49.678;6.560;2023-12-04T14:13:51;5.10;75.70
20091;DHT22;10205;49.678;6.560;2023-12-04T14:16:18;5.10;75.70
20091;DHT22;10205;49.678;6.560;2023-12-04T14:18:46;5.10;75.70
20091;DHT22;10205;49.678;6.560;2023-12-04T14:21:13;5.10;75.70
20091;DHT22;10205;49.678;6.560;2023-12-04T14:23:41;5.10;75.80
20091;DHT22;10205;49.678;6.560;2023-12-04T14:26:09;5.10;75.80
20091;DHT22;10205;49.678;6.560;2023-12-04T14:28:36;5.10;75.80
20091;DHT22;10205;49.678;6.560;2023-12-04T14:31:04;5.20;75.70
20091;DHT22;10205;49.678;6.560;2023-12-04T14:33:32;5.20;75.70
20091;DHT22;10205;49.678;6.560;2023-12-04T14:36:00;5.20;75.50
20091;DHT22;10205;49.678;6.560;2023-12-04T14:38:27;5.20;75.50
20091;DHT22;10205;49.678;6.560;2023-12-04T14:40:56;5.20;75.40
20091;DHT22;10205;49.678;6.560;2023-12-04T14:43:25;5.20;75.50
20091;DHT22;10205;49.678;6.560;2023-12-04T14:45:52;5.20;75.50
20091;DHT22;10205;49.678;6.560;2023-12-04T14:48:19;5.20;75.50
20091;DHT22;10205;49.678;6.560;2023-12-04T14:50:46;5.20;75.50
20091;DHT22;10205;49.678;6.560;2023-12-04T14:53:14;5.20;75.60
20091;DHT22;10205;49.678;6.560;2023-12-04T14:55:53;5.30;75.60
20091;DHT22;10205;49.678;6.560;2023-12-04T14:58:39;5.30;75.60
20091;DHT22;10205;49.678;6.560;2023-12-04T15:01:24;5.30;75.70
20091;DHT22;10205;49.678;6.560;2023-12-04T15:04:11;5.30;75.60
20091;DHT22;10205;49.678;6.560;2023-12-04T15:06:56;5.30;75.50
20091;DHT22;10205;49.678;6.560;2023-12-04T15:09:54;5.30;75.50
20091;DHT22;10205;49.678;6.560;2023-12-04T15:12:42;5.30;75.50
20091;DHT22;10205;49.678;6.560;2023-12-04T15:15:27;5.30;76.30
20091;DHT22;10205;49.678;6.560;2023-12-04T15:18:05;5.30;75.50
20091;DHT22;10205;49.678;6.560;2023-12-04T15:21:02;5.30;75.60
20091;DHT22;10205;49.678;6.560;2023-12-04T15:23:30;5.30;75.60
20091;DHT22;10205;49.678;6.560;2023-12-04T15:25:56;5.30;75.60
20091;DHT22;10205;49.678;6.560;2023-12-04T15:28:25;5.30;75.70
20091;DHT22;10205;49.678;6.560;2023-12-04T15:30:52;5.30;75.70
20091;DHT22;10205;49.678;6.560;2023-12-04T15:33:21;5.30;75.60
20091;DHT22;10205;49.678;6.560;2023-12-04T15:35:51;5.30;75.70
20091;DHT22;10205;49.678;6.560;2023-12-04T15:38:18;5.30;75.70
20091;DHT22;10205;49.678;6.560;2023-12-04T15:40:46;5.30;75.80
20091;DHT22;10205;49.678;6.560;2023-12-04T15:43:13;5.30;75.70
20091;DHT22;10205;49.678;6.560;2023-12-04T15:45:41;5.30;75.60
20091;DHT22;10205;49.678;6.560;2023-12-04T15:48:09;5.40;75.70
20091;DHT22;10205;49.678;6.560;2023-12-04T15:50:37;5.40;75.80
20091;DHT22;10205;49.678;6.560;2023-12-04T15:53:03;5.40;75.70
20091;DHT22;10205;49.678;6.560;2023-12-04T15:55:30;5.40;75.70